createdAt,value
2022-11-21T00:00:58.763Z,2.36
2022-11-21T00:03:25.691Z,2.37
2022-11-21T00:05:52.395Z,2.37
2022-11-21T00:08:21.225Z,2.34
2022-11-21T00:10:48.771Z,2.32
2022-11-21T00:13:20.110Z,2.33
2022-11-21T00:15:48.098Z,2.33
2022-11-21T00:18:15.323Z,2.36
2022-11-21T00:20:42.948Z,2.32
2022-11-21T00:23:10.626Z,2.34
2022-11-21T00:25:38.425Z,2.35
2022-11-21T00:28:05.950Z,2.34
2022-11-21T00:30:32.640Z,2.31
2022-11-21T00:32:59.654Z,2.38
2022-11-21T00:35:27.371Z,2.39
2022-11-21T00:37:54.094Z,2.37
2022-11-21T00:40:20.799Z,2.31
2022-11-21T00:42:47.689Z,2.32
2022-11-21T00:45:16.374Z,2.31
2022-11-21T00:47:46.476Z,2.35
2022-11-21T00:50:13.360Z,2.46
2022-11-21T00:52:40.202Z,2.33
2022-11-21T00:55:07.080Z,2.31
2022-11-21T00:57:33.785Z,2.31
2022-11-21T01:00:00.509Z,2.24
2022-11-21T01:02:27.246Z,2.25
2022-11-21T01:04:53.989Z,2.27
2022-11-21T01:07:20.804Z,2.32
2022-11-21T01:09:48.208Z,2.33
2022-11-21T01:12:14.878Z,2.25
2022-11-21T01:14:41.528Z,2.29
2022-11-21T01:17:08.212Z,2.24
2022-11-21T01:19:35.150Z,2.24
2022-11-21T01:22:01.812Z,2.19
2022-11-21T01:24:28.840Z,2.14
2022-11-21T01:26:55.784Z,2.21
2022-11-21T01:29:22.697Z,2.20
2022-11-21T01:31:50.012Z,2.17
2022-11-21T01:34:17.205Z,2.17
2022-11-21T01:36:44.072Z,2.20
2022-11-21T01:39:12.073Z,2.19
2022-11-21T01:41:44.732Z,2.24
2022-11-21T01:44:23.658Z,2.19
2022-11-21T01:46:52.227Z,2.19
2022-11-21T01:49:29.597Z,2.17
2022-11-21T01:51:59.405Z,2.15
2022-11-21T01:54:36.337Z,2.11
2022-11-21T01:57:40.653Z,2.11
2022-11-21T02:00:21.705Z,2.11
2022-11-21T02:02:57.607Z,2.16
2022-11-21T02:05:28.133Z,2.13
2022-11-21T02:08:06.039Z,2.25
2022-11-21T02:10:34.987Z,2.23
2022-11-21T02:13:02.431Z,2.17
2022-11-21T02:15:30.046Z,2.14
2022-11-21T02:17:56.843Z,2.14
2022-11-21T02:20:25.775Z,2.14
2022-11-21T02:23:02.191Z,2.18
2022-11-21T02:25:31.532Z,2.15
2022-11-21T02:28:07.450Z,2.12
2022-11-21T02:30:37.939Z,2.07
2022-11-21T02:33:05.160Z,2.07
2022-11-21T02:35:34.012Z,2.04
2022-11-21T02:38:06.648Z,1.99
2022-11-21T02:40:37.585Z,2.02
2022-11-21T02:43:20.105Z,2.03
2022-11-21T02:45:47.210Z,2.08
2022-11-21T02:48:14.762Z,2.13
2022-11-21T02:50:46.801Z,2.09
2022-11-21T02:53:15.919Z,2.10
2022-11-21T02:55:43.505Z,2.09
2022-11-21T02:58:11.117Z,2.12
2022-11-21T03:00:39.636Z,2.12
2022-11-21T03:03:06.603Z,2.15
2022-11-21T03:05:33.373Z,2.13
2022-11-21T03:08:00.202Z,2.12
2022-11-21T03:10:26.902Z,2.21
2022-11-21T03:13:01.271Z,2.20
2022-11-21T03:15:30.358Z,2.29
2022-11-21T03:17:57.796Z,2.24
2022-11-21T03:20:25.061Z,2.23
2022-11-21T03:22:53.515Z,2.21
2022-11-21T03:25:20.822Z,2.16
2022-11-21T03:27:50.706Z,2.17
2022-11-21T03:30:17.467Z,2.17
2022-11-21T03:32:44.303Z,2.16
2022-11-21T03:35:11.063Z,2.15
2022-11-21T03:37:37.788Z,2.16
2022-11-21T03:40:05.041Z,2.09
2022-11-21T03:42:31.705Z,2.10
2022-11-21T03:44:58.427Z,2.09
2022-11-21T03:47:27.436Z,2.07
2022-11-21T03:49:54.240Z,2.04
2022-11-21T03:52:21.038Z,2.07
2022-11-21T03:54:47.717Z,2.08
2022-11-21T03:57:14.399Z,2.07
2022-11-21T03:59:41.081Z,2.11
2022-11-21T04:02:07.904Z,2.12
2022-11-21T04:04:34.637Z,2.12
2022-11-21T04:07:01.360Z,2.08
2022-11-21T04:09:28.094Z,2.06
2022-11-21T04:11:54.866Z,2.03
2022-11-21T04:14:21.549Z,2.07
2022-11-21T04:16:48.252Z,2.12
2022-11-21T04:19:14.983Z,2.15
2022-11-21T04:21:41.658Z,2.14
2022-11-21T04:24:08.579Z,2.09
2022-11-21T04:26:35.305Z,2.14
2022-11-21T04:29:02.019Z,2.18
2022-11-21T04:31:28.660Z,2.18
2022-11-21T04:33:55.313Z,2.14
2022-11-21T04:36:21.980Z,2.17
2022-11-21T04:38:48.647Z,2.20
2022-11-21T04:41:15.423Z,2.26
2022-11-21T04:43:42.200Z,2.37
2022-11-21T04:46:11.580Z,2.36
2022-11-21T04:48:38.496Z,2.32
2022-11-21T04:51:05.262Z,2.28
2022-11-21T04:53:32.064Z,2.27
2022-11-21T04:56:00.169Z,2.25
2022-11-21T04:58:26.848Z,2.26
2022-11-21T05:00:53.542Z,2.18
2022-11-21T05:03:20.342Z,2.24
2022-11-21T05:05:47.168Z,2.22
2022-11-21T05:08:13.816Z,2.19
2022-11-21T05:10:59.267Z,2.26
2022-11-21T05:13:25.945Z,2.31
2022-11-21T05:15:58.665Z,2.34
2022-11-21T05:18:25.432Z,2.42
2022-11-21T05:20:52.133Z,2.39
2022-11-21T05:23:18.874Z,2.31
2022-11-21T05:25:45.608Z,2.29
2022-11-21T05:28:12.396Z,2.17
2022-11-21T05:30:39.092Z,2.22
2022-11-21T05:33:05.813Z,2.11
2022-11-21T05:35:32.647Z,2.07
2022-11-21T05:37:59.445Z,2.04
2022-11-21T05:40:26.232Z,1.97
2022-11-21T05:43:11.347Z,2.03
2022-11-21T05:45:38.080Z,2.00
2022-11-21T05:48:07.921Z,2.00
2022-11-21T05:50:36.129Z,2.03
2022-11-21T05:53:04.901Z,2.15
2022-11-21T05:55:34.239Z,2.08
2022-11-21T05:58:01.116Z,2.18
2022-11-21T06:00:29.069Z,2.18
2022-11-21T06:03:14.602Z,2.19
2022-11-21T06:05:41.509Z,2.09
2022-11-21T06:08:08.772Z,2.20
2022-11-21T06:10:35.563Z,2.20
2022-11-21T06:13:03.051Z,2.09
2022-11-21T06:15:31.080Z,2.12
2022-11-21T06:18:00.287Z,2.06
2022-11-21T06:20:26.975Z,1.99
2022-11-21T06:22:53.615Z,1.97
2022-11-21T06:25:20.274Z,1.84
2022-11-21T06:27:46.896Z,1.88
2022-11-21T06:30:16.515Z,1.77
2022-11-21T06:32:47.742Z,1.66
2022-11-21T06:35:14.526Z,1.71
2022-11-21T06:37:41.189Z,1.74
2022-11-21T06:40:08.326Z,1.70
2022-11-21T06:42:35.195Z,1.62
2022-11-21T06:45:01.918Z,1.68
2022-11-21T06:47:28.593Z,1.64
2022-11-21T06:49:55.353Z,1.65
2022-11-21T06:52:21.973Z,1.59
2022-11-21T06:54:48.658Z,1.57
2022-11-21T06:57:15.323Z,1.50
2022-11-21T06:59:41.961Z,1.50
2022-11-21T07:02:13.109Z,1.47
2022-11-21T07:04:40.340Z,1.56
2022-11-21T07:07:07.724Z,1.55
2022-11-21T07:09:35.788Z,1.54
2022-11-21T07:12:21.325Z,1.53
2022-11-21T07:14:48.173Z,1.53
2022-11-21T07:17:15.305Z,1.55
2022-11-21T07:19:42.083Z,1.57
2022-11-21T07:22:09.126Z,1.51
2022-11-21T07:24:35.735Z,1.50
2022-11-21T07:27:02.772Z,1.56
2022-11-21T07:29:29.744Z,1.57
2022-11-21T07:31:56.795Z,1.64
2022-11-21T07:34:23.508Z,1.65
2022-11-21T07:36:50.142Z,1.64
2022-11-21T07:39:17.007Z,1.66
2022-11-21T07:41:43.683Z,1.72
2022-11-21T07:44:10.340Z,1.74
2022-11-21T07:46:40.108Z,1.81
2022-11-21T07:49:07.014Z,1.91
2022-11-21T07:51:33.632Z,1.93
2022-11-21T07:54:00.283Z,1.95
2022-11-21T07:56:26.980Z,1.89
2022-11-21T07:58:53.746Z,1.95
2022-11-21T08:01:20.599Z,1.91
2022-11-21T08:03:47.719Z,1.91
2022-11-21T08:06:14.491Z,1.93
2022-11-21T08:08:41.131Z,1.94
2022-11-21T08:11:08.086Z,1.98
2022-11-21T08:13:35.850Z,1.95
2022-11-21T08:16:04.522Z,2.04
2022-11-21T08:18:31.220Z,2.20
2022-11-21T08:21:01.180Z,2.18
2022-11-21T08:23:27.826Z,2.12
2022-11-21T08:25:54.502Z,2.15
2022-11-21T08:28:21.441Z,2.14
2022-11-21T08:30:48.076Z,2.13
2022-11-21T08:33:14.736Z,2.15
2022-11-21T08:35:42.411Z,2.13
2022-11-21T08:38:09.162Z,2.15
2022-11-21T08:40:36.209Z,2.06
2022-11-21T08:43:06.257Z,2.14
2022-11-21T08:45:33.695Z,2.21
2022-11-21T08:48:00.470Z,2.25
2022-11-21T08:50:28.262Z,2.22
2022-11-21T08:53:02.205Z,2.20
2022-11-21T08:55:30.291Z,2.24
2022-11-21T08:57:56.954Z,2.17
2022-11-21T09:00:24.094Z,2.19
2022-11-21T09:02:50.815Z,2.24
2022-11-21T09:05:17.561Z,2.34
2022-11-21T09:07:44.360Z,2.28
2022-11-21T09:10:11.011Z,2.31
2022-11-21T09:12:37.733Z,2.35
2022-11-21T09:15:34.785Z,2.34
2022-11-21T09:18:04.831Z,2.27
2022-11-21T09:20:32.982Z,2.27
2022-11-21T09:23:08.284Z,2.26
2022-11-21T09:25:35.531Z,2.39
2022-11-21T09:28:03.687Z,2.43
2022-11-21T09:30:30.638Z,2.37
2022-11-21T09:33:05.742Z,2.31
2022-11-21T09:35:32.882Z,2.38
2022-11-21T09:38:00.465Z,2.43
2022-11-21T09:40:30.395Z,2.47
2022-11-21T09:43:06.827Z,2.47
2022-11-21T09:45:37.426Z,2.49
2022-11-21T09:48:11.467Z,2.44
2022-11-21T09:50:50.695Z,2.46
2022-11-21T09:53:36.603Z,2.46
2022-11-21T09:56:12.451Z,2.47
2022-11-21T09:59:07.376Z,2.45
2022-11-21T10:01:34.349Z,2.71
2022-11-21T10:04:02.395Z,2.97
2022-11-21T10:06:40.793Z,2.97
2022-11-21T10:09:27.637Z,3.07
2022-11-21T10:12:21.572Z,3.03
2022-11-21T10:14:57.408Z,3.01
2022-11-21T10:17:39.033Z,2.98
2022-11-21T10:20:36.509Z,3.01
2022-11-21T10:23:15.385Z,2.95
2022-11-21T10:25:53.654Z,2.94
2022-11-21T10:28:38.677Z,2.97
2022-11-21T10:31:10.981Z,2.97
2022-11-21T10:33:40.497Z,2.97
2022-11-21T10:36:36.143Z,3.02
2022-11-21T10:39:07.631Z,3.11
2022-11-21T10:41:48.585Z,3.16
2022-11-21T10:44:44.723Z,3.20
2022-11-21T10:47:29.041Z,3.18
2022-11-21T10:50:29.819Z,3.28
2022-11-21T10:53:28.746Z,3.27
2022-11-21T10:56:09.763Z,3.28
2022-11-21T10:58:45.041Z,3.28
2022-11-21T11:01:28.565Z,3.39
2022-11-21T11:04:34.843Z,3.52
2022-11-21T11:07:28.551Z,3.65
2022-11-21T11:10:15.885Z,3.76
2022-11-21T11:13:02.032Z,3.91
2022-11-21T11:15:31.877Z,4.33
2022-11-21T11:18:07.609Z,4.60
2022-11-21T11:20:40.677Z,4.71
2022-11-21T11:23:23.528Z,5.13
2022-11-21T11:25:55.858Z,5.61
2022-11-21T11:28:26.036Z,5.59
2022-11-21T11:30:55.530Z,5.59
2022-11-21T11:33:33.163Z,5.41
2022-11-21T11:36:31.548Z,5.36
2022-11-21T11:39:00.411Z,5.40
2022-11-21T11:42:16.775Z,5.31
2022-11-21T11:45:11.438Z,5.32
2022-11-21T11:48:10.952Z,5.25
2022-11-21T11:50:46.138Z,5.12
2022-11-21T11:53:20.069Z,5.01
2022-11-21T11:55:54.597Z,4.91
2022-11-21T11:58:49.548Z,4.74
2022-11-21T12:01:26.299Z,4.70
2022-11-21T12:04:13.177Z,4.72
2022-11-21T12:09:52.346Z,4.72
2022-11-21T12:12:33.979Z,4.74
2022-11-21T12:15:30.935Z,4.70
2022-11-21T12:18:15.921Z,4.67
2022-11-21T12:20:51.017Z,4.66
2022-11-21T12:23:18.993Z,4.74
2022-11-21T12:26:06.995Z,4.81
2022-11-21T12:29:11.975Z,4.75
2022-11-21T12:32:04.366Z,4.68
2022-11-21T12:34:52.404Z,4.64
2022-11-21T12:37:22.222Z,4.58
2022-11-21T12:40:09.572Z,4.64
2022-11-21T12:42:57.732Z,4.65
2022-11-21T12:45:29.551Z,4.64
2022-11-21T12:48:23.971Z,4.65
2022-11-21T12:51:19.077Z,4.70
2022-11-21T12:54:13.793Z,4.75
2022-11-21T12:56:58.129Z,4.70
2022-11-21T12:59:25.767Z,4.65
2022-11-21T13:02:12.758Z,4.67
2022-11-21T13:04:41.735Z,4.68
2022-11-21T13:07:08.749Z,4.69
2022-11-21T13:09:41.709Z,4.76
2022-11-21T13:12:35.137Z,4.83
2022-11-21T13:15:38.484Z,4.92
2022-11-21T13:18:30.237Z,5.04
2022-11-21T13:20:56.965Z,5.51
2022-11-21T13:23:41.650Z,8.15
2022-11-21T13:26:28.817Z,7.35
2022-11-21T13:29:09.735Z,6.81
2022-11-21T13:31:36.912Z,6.95
2022-11-21T13:34:05.814Z,6.97
2022-11-21T13:36:32.514Z,7.00
2022-11-21T13:38:59.902Z,6.70
2022-11-21T13:41:54.638Z,6.53
2022-11-21T13:44:33.597Z,6.37
2022-11-21T13:47:12.438Z,6.24
2022-11-21T13:49:44.792Z,6.10
2022-11-21T13:52:26.912Z,6.08
2022-11-21T13:55:11.969Z,6.11
2022-11-21T13:57:41.779Z,6.22
2022-11-21T14:00:52.976Z,6.46
2022-11-21T14:03:25.919Z,7.18
2022-11-21T14:06:04.894Z,6.84
2022-11-21T14:08:31.986Z,6.70
2022-11-21T14:10:58.875Z,6.82
2022-11-21T14:13:32.372Z,6.59
2022-11-21T14:16:32.419Z,6.44
2022-11-21T14:18:59.028Z,6.40
2022-11-21T14:21:29.480Z,6.24
2022-11-21T14:24:04.551Z,6.18
2022-11-21T14:26:44.671Z,6.11
2022-11-21T14:29:26.701Z,5.99
2022-11-21T14:31:54.159Z,5.89
2022-11-21T14:34:26.062Z,5.86
2022-11-21T14:36:53.798Z,5.81
2022-11-21T14:39:44.593Z,5.77
2022-11-21T14:42:16.567Z,5.78
2022-11-21T14:44:43.924Z,5.76
2022-11-21T14:47:25.027Z,5.69
2022-11-21T14:49:55.445Z,5.60
2022-11-21T14:52:29.432Z,5.46
2022-11-21T14:55:31.433Z,5.35
2022-11-21T14:57:47.983Z,5.32
2022-11-21T15:00:51.173Z,5.36
2022-11-21T15:03:04.952Z,5.29
2022-11-21T15:06:00.633Z,5.24
2022-11-21T15:08:53.781Z,5.11
2022-11-21T15:11:13.132Z,5.04
2022-11-21T15:14:06.629Z,4.95
2022-11-21T15:16:27.837Z,4.89
2022-11-21T15:18:55.188Z,4.79
2022-11-21T15:21:22.048Z,4.66
2022-11-21T15:23:48.752Z,4.65
2022-11-21T15:26:33.143Z,4.58
2022-11-21T15:29:00.966Z,4.53
2022-11-21T15:31:27.948Z,4.51
2022-11-21T15:37:05.388Z,4.42
2022-11-21T15:39:33.561Z,4.37
2022-11-21T15:42:34.119Z,4.33
2022-11-21T15:45:27.203Z,4.28
2022-11-21T15:47:55.516Z,4.16
2022-11-21T15:50:26.295Z,4.10
2022-11-21T15:52:53.576Z,4.04
2022-11-21T15:55:28.262Z,3.86
2022-11-21T15:57:54.989Z,3.75
2022-11-21T16:00:21.709Z,3.68
2022-11-21T16:02:48.876Z,3.64
2022-11-21T16:05:16.485Z,3.67
2022-11-21T16:07:43.266Z,3.65
2022-11-21T16:10:19.460Z,3.61
2022-11-21T16:12:49.568Z,3.58
2022-11-21T16:15:16.535Z,3.60
2022-11-21T16:17:45.526Z,3.65
2022-11-21T16:20:12.592Z,3.56
2022-11-21T16:22:42.798Z,3.55
2022-11-21T16:25:13.733Z,3.50
2022-11-21T16:27:42.267Z,3.37
2022-11-21T16:30:09.363Z,3.37
2022-11-21T16:32:36.157Z,3.36
2022-11-21T16:35:02.893Z,3.41
2022-11-21T16:37:32.044Z,3.39
2022-11-21T16:40:04.509Z,3.34
2022-11-21T16:42:34.136Z,3.30
2022-11-21T16:45:00.830Z,3.30
2022-11-21T16:47:27.596Z,3.24
2022-11-21T16:49:54.311Z,3.27
2022-11-21T16:52:21.102Z,3.20
2022-11-21T16:54:47.811Z,3.14
2022-11-21T16:57:14.531Z,3.11
2022-11-21T16:59:41.170Z,3.04
2022-11-21T17:02:07.917Z,3.05
2022-11-21T17:04:36.412Z,3.04
2022-11-21T17:07:03.107Z,3.04
2022-11-21T17:09:29.882Z,2.99
2022-11-21T17:11:57.639Z,3.01
2022-11-21T17:14:24.468Z,3.04
2022-11-21T17:16:51.260Z,3.03
2022-11-21T17:19:17.875Z,3.04
2022-11-21T17:21:44.578Z,2.99
2022-11-21T17:24:13.230Z,2.96
2022-11-21T17:26:40.106Z,2.95
2022-11-21T17:29:06.786Z,3.02
2022-11-21T17:31:33.605Z,2.95
2022-11-21T17:34:01.035Z,2.83
2022-11-21T17:36:29.267Z,2.85
2022-11-21T17:38:56.501Z,2.82
2022-11-21T17:41:24.844Z,2.85
2022-11-21T17:43:56.224Z,2.91
2022-11-21T17:46:25.429Z,2.96
2022-11-21T17:48:57.256Z,3.05
2022-11-21T17:51:30.343Z,3.05
2022-11-21T17:53:57.518Z,3.08
2022-11-21T17:56:27.598Z,3.07
2022-11-21T17:58:54.308Z,3.14
2022-11-21T18:01:22.164Z,3.18
2022-11-21T18:03:55.014Z,3.15
2022-11-21T18:06:21.649Z,3.08
2022-11-21T18:08:48.691Z,3.11
2022-11-21T18:11:19.305Z,3.24
2022-11-21T18:13:46.268Z,3.24
2022-11-21T18:16:15.737Z,3.29
2022-11-21T18:18:42.740Z,3.32
2022-11-21T18:21:17.959Z,3.24
2022-11-21T18:23:48.025Z,3.22
2022-11-21T18:26:15.795Z,3.31
2022-11-21T18:28:43.338Z,3.22
2022-11-21T18:31:19.611Z,3.15
2022-11-21T18:33:57.843Z,3.17
2022-11-21T18:36:26.322Z,3.24
2022-11-21T18:39:02.149Z,3.27
2022-11-21T18:41:38.500Z,3.27
2022-11-21T18:44:06.758Z,3.22
2022-11-21T18:46:36.159Z,3.29
2022-11-21T18:49:06.511Z,3.31
2022-11-21T18:51:34.488Z,3.34
2022-11-21T18:54:10.371Z,3.34
2022-11-21T18:56:38.485Z,3.36
2022-11-21T18:59:06.539Z,3.35
2022-11-21T19:01:35.544Z,3.32
2022-11-21T19:04:02.723Z,3.39
2022-11-21T19:06:29.554Z,3.36
2022-11-21T19:08:58.019Z,3.40
2022-11-21T19:11:27.793Z,3.40
2022-11-21T19:13:56.050Z,3.34
2022-11-21T19:16:24.951Z,3.35
2022-11-21T19:21:41.830Z,3.33
2022-11-21T19:24:13.327Z,3.46
2022-11-21T19:26:40.844Z,3.36
2022-11-21T19:29:07.612Z,3.38
2022-11-21T19:31:37.881Z,3.36
2022-11-21T19:34:09.600Z,3.46
2022-11-21T19:36:36.734Z,3.48
2022-11-21T19:39:03.580Z,3.41
2022-11-21T19:41:30.788Z,3.41
2022-11-21T19:43:59.823Z,3.50
2022-11-21T19:46:33.420Z,3.54
2022-11-21T19:49:01.373Z,3.55
2022-11-21T19:51:30.478Z,3.52
2022-11-21T19:53:57.142Z,3.47
2022-11-21T19:56:26.071Z,3.45
2022-11-21T19:58:53.456Z,3.54
2022-11-21T20:01:22.882Z,3.56
2022-11-21T20:03:52.399Z,3.50
2022-11-21T20:06:22.006Z,3.54
2022-11-21T20:09:09.241Z,3.58
2022-11-21T20:11:37.097Z,3.58
2022-11-21T20:14:04.280Z,3.72
2022-11-21T20:16:39.455Z,3.75
2022-11-21T20:19:08.556Z,3.69
2022-11-21T20:21:36.056Z,3.64
2022-11-21T20:24:03.966Z,3.62
2022-11-21T20:26:31.081Z,3.67
2022-11-21T20:29:01.113Z,3.65
2022-11-21T20:31:32.276Z,3.70
2022-11-21T20:34:01.875Z,3.73
2022-11-21T20:36:31.657Z,3.71
2022-11-21T20:39:05.040Z,3.79
2022-11-21T20:41:34.264Z,3.73
2022-11-21T20:46:50.733Z,3.76
2022-11-21T20:49:17.497Z,3.73
2022-11-21T20:54:31.520Z,3.79
2022-11-21T20:56:58.636Z,3.81
2022-11-21T20:59:26.704Z,3.79
2022-11-21T21:01:53.522Z,3.74
2022-11-21T21:04:20.341Z,3.80
2022-11-21T21:06:46.943Z,3.84
2022-11-21T21:09:13.744Z,3.82
2022-11-21T21:11:55.667Z,3.80
2022-11-21T21:14:22.635Z,3.79
2022-11-21T21:16:49.589Z,3.80
2022-11-21T21:19:17.244Z,3.72
2022-11-21T21:21:43.879Z,3.72
2022-11-21T21:24:12.240Z,3.78
2022-11-21T21:26:43.214Z,3.78
2022-11-21T21:29:12.706Z,3.93
2022-11-21T21:31:41.773Z,3.93
2022-11-21T21:34:12.221Z,3.93
2022-11-21T21:36:38.835Z,3.90
2022-11-21T21:39:05.488Z,3.83
2022-11-21T21:41:32.458Z,3.95
2022-11-21T21:43:59.672Z,3.93
2022-11-21T21:46:27.654Z,3.86
2022-11-21T21:48:56.877Z,3.85
2022-11-21T21:51:25.997Z,3.83
2022-11-21T21:53:54.413Z,3.77
2022-11-21T21:56:22.334Z,3.88
2022-11-21T21:58:50.593Z,3.89
2022-11-21T22:01:22.787Z,3.96
2022-11-21T22:03:53.484Z,3.98
2022-11-21T22:06:20.438Z,3.98
2022-11-21T22:08:48.713Z,3.93
2022-11-21T22:11:26.126Z,3.85
2022-11-21T22:14:04.562Z,3.85
2022-11-21T22:16:32.036Z,3.90
2022-11-21T22:18:59.343Z,3.93
2022-11-21T22:21:28.504Z,3.90
2022-11-21T22:24:24.231Z,3.92
2022-11-21T22:26:43.223Z,3.92
2022-11-21T22:29:10.308Z,4.00
2022-11-21T22:31:37.555Z,3.96
2022-11-21T22:34:04.826Z,4.05
2022-11-21T22:36:31.573Z,3.99
2022-11-21T22:38:58.360Z,3.94
2022-11-21T22:41:26.911Z,4.00
2022-11-21T22:43:59.902Z,3.97
2022-11-21T22:46:29.086Z,3.91
2022-11-21T22:48:56.146Z,4.00
2022-11-21T22:51:25.567Z,4.00
2022-11-21T22:53:52.425Z,4.00
2022-11-21T22:56:21.327Z,4.09
2022-11-21T22:58:50.953Z,4.11
2022-11-21T23:01:20.578Z,4.10
2022-11-21T23:03:48.024Z,4.05
2022-11-21T23:06:17.748Z,4.03
2022-11-21T23:08:44.960Z,4.12
2022-11-21T23:11:13.217Z,4.05
2022-11-21T23:13:41.850Z,4.01
2022-11-21T23:16:09.652Z,4.04
2022-11-21T23:18:39.390Z,4.10
2022-11-21T23:21:06.915Z,4.17
2022-11-21T23:23:33.926Z,4.08
2022-11-21T23:26:03.414Z,3.94
2022-11-21T23:28:53.987Z,3.94
2022-11-21T23:31:23.357Z,3.87
2022-11-21T23:33:53.331Z,3.91
2022-11-21T23:36:33.319Z,3.90
2022-11-21T23:39:00.167Z,3.98
2022-11-21T23:41:30.082Z,4.02
2022-11-21T23:43:58.227Z,3.95
2022-11-21T23:46:27.639Z,3.87
2022-11-21T23:48:54.441Z,3.86
2022-11-21T23:51:21.119Z,3.71
2022-11-21T23:53:48.249Z,3.68
2022-11-21T23:56:14.913Z,3.63
2022-11-21T23:58:41.587Z,3.61
